Observations for LAMPEDUSA ISLAND, Italy (LICD)

LICD 260450Z 10002KT CAVOK 26/22 Q1016  
LICD 260350Z AUTO 09002KT 9999 NCD 27/22 Q1015  
LICD 260250Z AUTO 07003KT 9999 NCD 27/22 Q1015  
LICD 260150Z AUTO 09004KT 9999 NCD 27/23 Q1015  
LICD 260050Z AUTO 08005KT 9999 NCD 27/23 Q1015  
LICD 252350Z AUTO 07005KT 9999 NCD 27/23 Q1015  
LICD 252250Z AUTO 08006KT 9999 NCD 27/22 Q1015  
LICD 252150Z 08004KT CAVOK 27/23 Q1016  
LICD 252050Z 06004KT 010V080 CAVOK 28/23 Q1016  
LICD 251950Z 06005KT CAVOK 28/22 Q1016  
LICD 251850Z 07003KT CAVOK 28/19 Q1015  
LICD 251750Z 07004KT CAVOK 29/19 Q1015  
LICD 251650Z 05004KT CAVOK 29/21 Q1015  
LICD 251550Z 03005KT CAVOK 29/22 Q1015  
LICD 251450Z 03005KT CAVOK 29/22 Q1015  
LICD 251350Z 04005KT 340V080 CAVOK 30/22 Q1015  
LICD 251250Z VRB02KT CAVOK 31/23 Q1015  
LICD 251150Z 19005KT 150V220 CAVOK 30/23 Q1016  
LICD 251050Z 16004KT 120V220 CAVOK 30/23 Q1016  
LICD 250950Z 13005KT CAVOK 29/23 Q1016  
LICD 250850Z 12004KT CAVOK 29/23 Q1017  
LICD 250750Z VRB02KT CAVOK 29/23 Q1016  
LICD 250650Z VRB02KT CAVOK 28/23 Q1016  
LICD 250550Z VRB01KT CAVOK 27/22 Q1016  
LICD 250450Z 14003KT CAVOK 26/22 Q1015